Dades de l'estació automàtica Boí (2.537 m)
Resum diari
18:30 TU| Temperatura mitjana | -0.7 °C | |
|---|---|---|
| Temperatura màxima | 4.0 °C | 11:38 TU |
| Temperatura mínima | -3.5 °C | 5:00 TU |
| Humitat relativa mitjana | 83% | |
| Precipitació acumulada | 5.8 mm | |
| Gruix de neu màxim | 44 cm | |
| Ratxa màxima del vent (6 m) | 23.0 km/h - 261º | 13:54 TU |
| Irradiació solar global | 15.9 MJ/m2 | |
El tram horari està expressat en Temps Universal (TU). Cal sumar una hora en horari d'hivern i dues en horari d'estiu per passar a l'hora oficial.
Boí (2.537 m)
| Municipi | La Vall de Boí |
|---|---|
| Comarca | Alta Ribagorça |
| Altitud | 2537 m |
| Data alta | 13.11.1998 |
| Estat actual | Operativa |
| Període TU |
TM °C |
TX °C |
TN °C |
HRM % |
PPT mm |
GN cm |
VVM (6 m) km/h |
DVM (6 m) graus |
VVX (6 m) km/h |
RS W/m2 |
|---|---|---|---|---|---|---|---|---|---|---|
| 00:00 - 00:30 | -2.0 | -1.9 | -2.1 | 94 | 0.0 | 41 | 6.8 | 225 | 15.8 | 0 |
| 00:30 - 01:00 | -2.0 | -1.8 | -2.3 | 90 | 0.0 | 41 | 5.4 | 255 | 12.2 | 0 |
| 01:00 - 01:30 | -2.0 | -1.8 | -2.1 | 95 | 0.3 | 41 | 6.5 | 235 | 16.6 | 0 |
| 01:30 - 02:00 | -2.0 | -2.0 | -2.1 | 96 | 0.0 | 41 | 5.0 | 236 | 13.0 | 0 |
| 02:00 - 02:30 | -2.3 | -2.1 | -2.4 | 96 | 0.0 | 41 | 6.5 | 242 | 16.2 | 0 |
| 02:30 - 03:00 | -2.5 | -2.3 | -2.7 | 95 | 0.0 | 41 | 7.9 | 263 | 16.9 | 0 |
| 03:00 - 03:30 | -2.5 | -2.5 | -2.7 | 94 | 0.0 | 41 | 9.4 | 299 | 16.2 | 0 |
| 03:30 - 04:00 | -3.0 | -2.7 | -3.2 | 93 | 0.0 | 41 | 9.7 | 300 | 13.7 | 0 |
| 04:00 - 04:30 | -3.1 | -2.9 | -3.4 | 91 | 0.0 | 41 | 8.6 | 310 | 15.5 | 0 |
| 04:30 - 05:00 | -3.3 | -3.1 | -3.4 | 90 | 0.0 | 41 | 11.2 | 323 | 16.9 | 3 |
| 05:00 - 05:30 | -2.9 | -2.1 | -3.5 | 85 | 0.0 | 41 | 8.3 | 298 | 14.8 | 16 |
| 05:30 - 06:00 | -2.7 | -2.3 | -3.1 | 80 | 0.0 | 41 | 9.7 | 303 | 15.5 | 30 |
| 06:00 - 06:30 | -2.8 | -2.6 | -3.0 | 80 | 0.0 | 41 | 11.2 | 319 | 16.9 | 187 |
| 06:30 - 07:00 | -1.9 | -1.5 | -2.6 | 67 | 0.0 | 40 | 5.8 | 285 | 16.9 | 343 |
| 07:00 - 07:30 | -1.5 | -0.6 | -2.0 | 66 | 0.0 | 40 | 7.2 | 328 | 11.5 | 428 |
| 07:30 - 08:00 | -1.3 | -0.8 | -1.8 | 65 | 0.0 | 40 | 5.4 | 326 | 9.7 | 488 |
| 08:00 - 08:30 | -1.4 | -0.6 | -1.6 | 70 | 0.0 | 40 | 8.6 | 319 | 13.3 | 541 |
| 08:30 - 09:00 | -0.7 | -0.2 | -0.9 | 65 | 0.0 | 40 | 5.0 | 324 | 10.1 | 494 |
| 09:00 - 09:30 | 0.2 | 0.8 | -0.7 | 62 | 0.0 | 41 | 3.6 | 3 | 11.9 | 295 |
| 09:30 - 10:00 | 1.3 | 2.5 | 0.0 | 64 | 0.0 | 40 | 3.6 | 325 | 13.0 | 605 |
| 10:00 - 10:30 | 0.7 | 2.8 | -0.1 | 70 | 0.0 | 42 | 8.6 | 315 | 16.2 | 913 |
| 10:30 - 11:00 | 0.6 | 1.4 | 0.2 | 70 | 0.0 | 41 | 6.8 | 286 | 14.0 | 769 |
| 11:00 - 11:30 | 0.5 | 1.4 | 0.2 | 79 | 0.0 | 40 | 7.9 | 248 | 18.7 | 506 |
| 11:30 - 12:00 | 2.0 | 4.0 | 1.0 | 71 | 0.0 | 41 | 6.1 | 265 | 20.9 | 876 |
| 12:00 - 12:30 | 1.1 | 1.3 | 0.8 | 80 | 0.0 | 41 | 7.6 | 252 | 19.4 | 427 |
| 12:30 - 13:00 | 1.1 | 1.4 | 0.9 | 80 | 0.0 | 41 | 6.1 | 249 | 14.8 | 363 |
| 13:00 - 13:30 | 1.5 | 2.3 | 1.1 | 76 | 0.0 | 40 | 4.3 | 247 | 14.8 | 368 |
| 13:30 - 14:00 | 1.3 | 1.4 | 1.1 | 81 | 0.0 | 41 | 5.8 | 240 | 23.0 | 220 |
| 14:00 - 14:30 | 0.3 | 1.0 | -0.3 | 88 | 0.2 | 40 | 8.6 | 128 | 20.9 | 146 |
| 14:30 - 15:00 | 0.0 | 0.7 | -0.3 | 91 | 0.3 | 40 | 7.6 | 107 | 18.4 | 150 |
| 15:00 - 15:30 | 0.6 | 1.0 | 0.2 | 88 | 0.9 | 41 | 2.5 | 45 | 8.3 | 130 |
| 15:30 - 16:00 | 1.3 | 1.7 | 1.0 | 86 | 0.4 | 42 | 2.2 | 198 | 9.7 | 217 |
| 16:00 - 16:30 | 0.7 | 1.1 | 0.4 | 92 | 0.1 | 41 | 2.5 | 274 | 11.5 | 100 |
| 16:30 - 17:00 | 0.9 | 1.1 | 0.8 | 91 | 0.0 | 41 | 1.8 | 250 | 8.6 | 126 |
| 17:00 - 17:30 | 0.6 | 0.9 | 0.3 | 94 | 1.0 | 41 | 6.1 | 242 | 18.7 | 48 |
| 17:30 - 18:00 | 0.0 | 0.4 | -0.2 | 95 | 2.5 | 44 | 8.3 | 227 | 17.6 | 17 |
| 18:00 - 18:30 | -0.3 | -0.2 | -0.4 | 95 | 0.1 | 44 | 7.9 | 210 | 18.7 | 23 |
| 18:30 - 19:00 | -0.4 | -0.3 | -0.5 | 93 | 0.0 | 44 | 4.7 | 279 | 10.4 | 8 |
Les dades en taronja només han passat un control de qualitat automàtic. Resta pendent la seva validació definitiva.